Time;durP1;ratioP1;P1;durP2;ratioP2;P2;SDS_P1;SDS_P2;PMS_P1;PMS_P2;Temp;Humidity;BMP_temperature;BMP_pressure;BME280_temperature;BME280_humidity;BME280_pressure;Samples;Min_cycle;Max_cycle;Signal;HPM_P1;HPM_P2
2023/10/03 00:02:13;;;;;;;24.90;10.13;;;19.70;91.90;;;;;;5041278;28;20038;-80
2023/10/03 00:04:39;;;;;;;22.50;9.77;;;19.70;92.00;;;;;;5074391;28;20482;-80
2023/10/03 00:07:04;;;;;;;27.75;10.43;;;19.60;92.00;;;;;;5057719;28;20032;-80
2023/10/03 00:09:32;;;;;;;29.77;10.68;;;19.70;92.00;;;;;;5057504;28;20036;-80
2023/10/03 00:12:02;;;;;;;26.38;9.93;;;19.70;92.00;;;;;;5041138;28;20039;-81
2023/10/03 00:14:28;;;;;;;27.88;10.50;;;19.80;92.00;;;;;;5041311;28;20377;-80
2023/10/03 00:16:54;;;;;;;28.83;10.27;;;19.80;91.90;;;;;;5057213;28;20115;-80
2023/10/03 00:19:20;;;;;;;27.55;11.18;;;19.70;91.90;;;;;;5040650;28;20437;-80
2023/10/03 00:21:46;;;;;;;29.88;10.45;;;19.70;91.90;;;;;;5040610;28;20025;-80
2023/10/03 00:24:12;;;;;;;28.75;10.93;;;19.70;91.90;;;;;;5073977;28;20390;-80
2023/10/03 00:26:39;;;;;;;30.08;10.45;;;19.70;92.00;;;;;;5057066;28;20029;-80
2023/10/03 00:29:09;;;;;;;29.83;10.60;;;19.70;92.00;;;;;;5041135;28;20020;-80
2023/10/03 00:31:35;;;;;;;29.95;11.23;;;19.70;92.00;;;;;;5073792;28;20479;-80
2023/10/03 00:34:01;;;;;;;29.73;10.57;;;19.70;92.00;;;;;;5073639;28;20025;-80
2023/10/03 00:36:31;;;;;;;27.73;10.80;;;19.70;92.00;;;;;;5073915;28;20039;-80
2023/10/03 00:38:57;;;;;;;32.85;11.30;;;19.80;92.00;;;;;;5057613;28;20021;-80
2023/10/03 00:41:23;;;;;;;31.92;11.13;;;19.70;92.00;;;;;;5056977;28;20034;-80
2023/10/03 00:43:59;;;;;;;26.65;10.88;;;19.70;92.00;;;;;;5056967;28;20015;-80
2023/10/03 00:46:27;;;;;;;30.73;11.68;;;19.70;91.90;;;;;;5075575;28;20457;-80
2023/10/03 00:48:53;;;;;;;32.20;12.00;;;19.80;91.90;;;;;;5077302;28;20470;-80
2023/10/03 00:51:20;;;;;;;28.25;11.05;;;19.80;91.90;;;;;;5060088;28;20110;-80
2023/10/03 00:53:47;;;;;;;31.15;11.00;;;19.70;91.80;;;;;;5060275;28;20036;-80
2023/10/03 00:56:14;;;;;;;30.65;11.13;;;19.70;91.80;;;;;;5094673;28;20024;-80
2023/10/03 00:58:41;;;;;;;33.30;10.90;;;19.80;91.80;;;;;;5076577;28;20035;-80
2023/10/03 01:01:09;;;;;;;28.50;10.48;;;19.80;91.80;;;;;;5060432;28;20032;-80
2023/10/03 01:03:37;;;;;;;26.70;10.00;;;19.70;91.80;;;;;;5076429;28;20028;-80
2023/10/03 01:06:12;;;;;;;27.55;10.43;;;19.80;91.80;;;;;;5094650;28;20028;-80
2023/10/03 01:08:45;;;;;;;28.08;10.75;;;19.80;91.70;;;;;;5059745;28;20066;-80
2023/10/03 01:11:15;;;;;;;29.05;10.40;;;19.80;91.70;;;;;;5076390;28;20097;-80
2023/10/03 01:13:45;;;;;;;27.40;9.90;;;19.70;91.70;;;;;;5077085;28;20052;-80
2023/10/03 01:16:12;;;;;;;30.35;10.77;;;19.70;91.70;;;;;;5043762;28;20032;-80
2023/10/03 01:18:41;;;;;;;32.85;10.60;;;19.70;91.80;;;;;;5043395;28;20497;-80
2023/10/03 01:21:11;;;;;;;31.33;11.35;;;19.70;91.80;;;;;;5059769;28;20024;-80
2023/10/03 01:23:39;;;;;;;30.52;11.70;;;19.80;91.70;;;;;;5076366;28;20032;-80
2023/10/03 01:26:09;;;;;;;27.50;10.00;;;19.80;91.60;;;;;;5094007;28;20043;-80
2023/10/03 01:28:36;;;;;;;26.65;10.88;;;19.70;91.70;;;;;;5043667;28;20028;-80
2023/10/03 01:31:02;;;;;;;26.50;10.45;;;19.70;91.70;;;;;;5042315;28;20546;-80
2023/10/03 01:33:31;;;;;;;31.70;10.82;;;19.70;91.70;;;;;;5059072;28;20103;-80
2023/10/03 01:35:58;;;;;;;30.27;11.13;;;19.70;91.80;;;;;;5075583;28;20020;-80
2023/10/03 01:38:27;;;;;;;28.20;10.02;;;19.60;91.80;;;;;;5059778;28;20032;-80
2023/10/03 01:40:54;;;;;;;29.90;10.20;;;19.70;91.80;;;;;;5059315;28;20032;-80
2023/10/03 01:43:19;;;;;;;27.98;10.80;;;19.60;91.80;;;;;;5093866;28;20020;-80
2023/10/03 01:45:49;;;;;;;27.20;10.32;;;19.70;91.80;;;;;;5059229;28;20119;-80
2023/10/03 01:48:17;;;;;;;29.60;10.80;;;19.70;91.80;;;;;;5042583;28;20044;-80
2023/10/03 01:50:44;;;;;;;29.27;10.77;;;19.70;91.80;;;;;;5059063;28;20189;-80
2023/10/03 01:53:11;;;;;;;33.22;11.18;;;19.70;91.80;;;;;;5059080;28;20389;-79
2023/10/03 01:55:38;;;;;;;30.02;10.90;;;19.70;91.80;;;;;;5075475;28;20443;-80
2023/10/03 01:58:05;;;;;;;33.90;11.30;;;19.70;91.70;;;;;;5075410;28;20028;-80
2023/10/03 02:00:35;;;;;;;30.63;11.23;;;19.70;91.70;;;;;;5093642;28;20085;-80
2023/10/03 02:03:05;;;;;;;27.02;10.48;;;19.70;91.80;;;;;;5042665;28;20021;-80
2023/10/03 02:05:36;;;;;;;29.15;10.52;;;19.70;91.70;;;;;;5058579;28;20132;-80
2023/10/03 02:08:04;;;;;;;30.48;11.45;;;19.70;91.80;;;;;;5058893;28;20039;-80
2023/10/03 02:10:32;;;;;;;30.75;11.10;;;19.60;91.80;;;;;;5074927;28;20089;-80
2023/10/03 02:12:58;;;;;;;26.48;9.40;;;19.70;91.70;;;;;;5075133;28;20085;-81
2023/10/03 02:15:26;;;;;;;25.48;9.65;;;19.60;91.80;;;;;;5058694;28;20024;-80
2023/10/03 02:17:59;;;;;;;27.65;9.98;;;19.60;91.90;;;;;;5075030;28;20431;-80
2023/10/03 02:20:30;;;;;;;23.25;8.95;;;19.60;92.00;;;;;;5093356;28;20031;-80
2023/10/03 02:22:57;;;;;;;29.25;9.77;;;19.60;92.00;;;;;;5043612;28;20028;-80
2023/10/03 02:25:24;;;;;;;32.58;10.52;;;19.60;92.10;;;;;;5093184;28;20035;-80
2023/10/03 02:27:53;;;;;;;27.15;10.43;;;19.70;92.20;;;;;;5074840;28;20035;-81
2023/10/03 02:30:29;;;;;;;28.85;9.70;;;19.70;92.20;;;;;;5093104;28;20549;-80
2023/10/03 02:32:57;;;;;;;28.27;9.80;;;19.70;92.10;;;;;;5074784;28;20017;-80
2023/10/03 02:35:25;;;;;;;31.77;10.88;;;19.80;92.10;;;;;;5041863;28;20150;-80
2023/10/03 02:37:52;;;;;;;29.40;9.70;;;19.80;92.00;;;;;;5058271;28;20020;-80
2023/10/03 02:40:22;;;;;;;27.77;8.93;;;19.80;92.00;;;;;;5093082;28;20103;-80
2023/10/03 02:42:54;;;;;;;25.70;9.10;;;19.90;92.00;;;;;;5074905;28;20028;-80
2023/10/03 02:45:23;;;;;;;24.13;8.43;;;19.90;92.00;;;;;;5075672;28;20081;-80
2023/10/03 02:47:51;;;;;;;29.00;10.18;;;19.90;91.80;;;;;;5092631;28;20127;-80
2023/10/03 02:50:17;;;;;;;25.27;8.93;;;19.90;91.90;;;;;;5058127;28;20035;-80
2023/10/03 02:52:45;;;;;;;23.05;8.57;;;19.90;91.80;;;;;;5041674;28;20505;-80
2023/10/03 02:55:15;;;;;;;27.55;9.35;;;19.90;91.70;;;;;;5074756;28;20023;-80
2023/10/03 02:57:41;;;;;;;27.20;9.07;;;20.00;91.60;;;;;;5042482;28;20032;-80
2023/10/03 03:00:15;;;;;;;28.25;9.68;;;20.00;91.60;;;;;;5074807;28;20362;-80
2023/10/03 03:02:49;;;;;;;26.55;9.55;;;20.00;91.60;;;;;;5058920;28;20119;-80
2023/10/03 03:05:16;;;;;;;23.02;7.80;;;20.10;91.60;;;;;;5074722;28;20445;-80
2023/10/03 03:07:46;;;;;;;26.88;8.43;;;20.10;91.40;;;;;;5074660;28;20024;-80
2023/10/03 03:10:14;;;;;;;23.70;8.30;;;20.10;91.30;;;;;;5058190;28;20116;-80
2023/10/03 03:12:42;;;;;;;23.48;8.40;;;20.10;91.30;;;;;;5074663;28;20040;-80
2023/10/03 03:15:09;;;;;;;26.48;8.43;;;20.20;91.20;;;;;;5058600;28;20035;-80
2023/10/03 03:17:35;;;;;;;24.33;8.25;;;20.20;90.90;;;;;;5057801;28;20397;-80
2023/10/03 03:20:11;;;;;;;22.15;8.15;;;20.30;91.10;;;;;;5074628;28;20107;-80
2023/10/03 03:22:38;;;;;;;18.60;7.18;;;20.30;90.90;;;;;;5074448;28;20443;-80
2023/10/03 03:25:05;;;;;;;20.63;7.20;;;20.30;90.70;;;;;;5057851;28;20391;-80
2023/10/03 03:27:39;;;;;;;21.45;7.90;;;20.40;90.80;;;;;;5041458;28;20032;-80
2023/10/03 03:32:49;;;;;;;21.58;7.10;;;20.50;90.80;;;;;;5063642;28;20097;-80
2023/10/03 03:35:15;;;;;;;23.65;8.95;;;20.50;90.90;;;;;;5041182;28;20487;-80
2023/10/03 03:37:43;;;;;;;22.33;7.38;;;20.60;90.80;;;;;;5058101;28;20024;-81
2023/10/03 03:40:25;;;;;;;23.95;8.25;;;20.60;90.80;;;;;;5058111;28;20036;-80
2023/10/03 03:42:52;;;;;;;23.58;7.85;;;20.50;90.80;;;;;;5061881;28;20031;-80
2023/10/03 03:45:21;;;;;;;24.80;8.27;;;20.50;90.90;;;;;;5041587;28;20481;-80
2023/10/03 03:47:50;;;;;;;22.20;7.47;;;20.50;90.90;;;;;;5074075;28;20118;-80
2023/10/03 03:50:20;;;;;;;20.23;7.28;;;20.50;91.00;;;;;;5074767;28;20063;-80
2023/10/03 03:52:46;;;;;;;18.45;6.82;;;20.50;91.20;;;;;;5041336;28;20028;-80
2023/10/03 03:55:13;;;;;;;18.67;6.93;;;20.50;91.30;;;;;;5059730;28;20085;-80
2023/10/03 03:57:39;;;;;;;20.15;6.93;;;20.50;91.40;;;;;;5061200;28;20024;-80
2023/10/03 04:00:19;;;;;;;25.45;7.53;;;20.50;91.40;;;;;;5044759;28;20047;-80
2023/10/03 04:02:44;;;;;;;19.95;7.30;;;20.50;91.50;;;;;;5080069;28;20055;-80
2023/10/03 04:05:12;;;;;;;22.98;7.25;;;20.50;91.40;;;;;;5078093;28;20505;-80
2023/10/03 04:07:38;;;;;;;19.85;7.10;;;20.50;91.30;;;;;;5061158;28;20450;-80
2023/10/03 04:10:12;;;;;;;18.25;6.82;;;20.50;91.30;;;;;;5077745;28;20032;-80
2023/10/03 04:12:44;;;;;;;21.73;7.35;;;20.50;91.30;;;;;;5078225;28;20097;-80
2023/10/03 04:15:15;;;;;;;24.33;7.68;;;20.50;91.30;;;;;;5062707;28;20654;-80
2023/10/03 04:17:42;;;;;;;21.05;7.07;;;20.50;91.30;;;;;;5061699;28;20032;-80
2023/10/03 04:22:41;;;;;;;15.65;6.30;;;20.50;91.40;;;;;;5078284;28;20032;-80
2023/10/03 04:25:13;;;;;;;18.13;6.05;;;20.50;91.30;;;;;;5077588;28;20032;-80
2023/10/03 04:27:39;;;;;;;16.42;6.63;;;20.50;91.50;;;;;;5095283;28;20169;-80
2023/10/03 04:30:09;;;;;;;13.00;5.72;;;20.50;91.60;;;;;;5077322;28;20085;-80
2023/10/03 04:32:35;;;;;;;19.17;6.60;;;20.50;91.60;;;;;;5060920;28;20031;-81
2023/10/03 04:35:01;;;;;;;15.65;6.72;;;20.50;91.60;;;;;;5077028;28;20024;-80
2023/10/03 04:37:27;;;;;;;17.98;5.90;;;20.60;91.70;;;;;;5060629;28;20035;-80
2023/10/03 04:39:53;;;;;;;16.67;6.30;;;20.50;91.60;;;;;;5043690;28;20028;-80
2023/10/03 04:42:19;;;;;;;14.90;5.80;;;20.50;91.50;;;;;;5060321;28;20381;-81
2023/10/03 04:44:45;;;;;;;13.40;5.80;;;20.60;91.50;;;;;;5060324;28;20119;-81
2023/10/03 04:47:12;;;;;;;18.85;5.93;;;20.60;91.50;;;;;;5043138;28;20040;-80
2023/10/03 04:49:38;;;;;;;13.75;5.50;;;20.60;91.50;;;;;;5043855;28;20081;-80
2023/10/03 04:52:07;;;;;;;15.43;5.38;;;20.60;91.40;;;;;;5043394;28;20111;-80
2023/10/03 04:54:33;;;;;;;18.40;6.22;;;20.60;91.30;;;;;;5077217;28;20054;-80
2023/10/03 04:56:59;;;;;;;13.57;5.18;;;20.60;91.30;;;;;;5060051;28;20060;-80
2023/10/03 04:59:25;;;;;;;14.27;5.63;;;20.60;91.20;;;;;;5059889;28;20125;-81
2023/10/03 05:01:50;;;;;;;17.48;5.95;;;20.60;91.20;;;;;;5059977;28;20051;-81
2023/10/03 05:04:16;;;;;;;13.98;5.18;;;20.60;91.20;;;;;;5059826;28;20032;-81
2023/10/03 05:06:47;;;;;;;11.60;5.15;;;20.50;91.10;;;;;;5076747;28;20024;-81
2023/10/03 05:09:13;;;;;;;12.93;4.75;;;20.60;91.20;;;;;;5060394;28;20400;-81
2023/10/03 05:11:41;;;;;;;13.00;4.90;;;20.60;91.20;;;;;;5076358;28;20095;-80
2023/10/03 05:14:08;;;;;;;13.25;4.90;;;20.60;91.20;;;;;;5060101;28;20028;-80
2023/10/03 05:16:35;;;;;;;22.13;5.57;;;20.60;91.20;;;;;;5043455;28;20023;-81
2023/10/03 05:19:01;;;;;;;12.10;5.03;;;20.60;91.10;;;;;;5059681;28;20504;-81
2023/10/03 05:21:32;;;;;;;10.95;4.40;;;20.60;91.10;;;;;;5044416;28;20024;-80
2023/10/03 05:23:57;;;;;;;9.95;4.43;;;20.60;91.00;;;;;;5059867;28;20039;-80
2023/10/03 05:26:25;;;;;;;11.95;4.47;;;20.50;90.90;;;;;;5044115;28;20032;-81
2023/10/03 05:28:55;;;;;;;11.73;4.60;;;20.50;90.90;;;;;;5023275;28;20066;-80
2023/10/03 05:31:23;;;;;;;9.77;4.68;;;20.50;91.00;;;;;;5039903;28;20025;-81
2023/10/03 05:33:48;;;;;;;9.10;4.65;;;20.50;91.00;;;;;;5024005;28;20477;-81
2023/10/03 05:36:18;;;;;;;7.80;4.00;;;20.40;90.80;;;;;;5039872;28;20032;-80
2023/10/03 05:38:45;;;;;;;11.18;4.28;;;20.40;90.70;;;;;;5041581;28;20520;-80
2023/10/03 05:41:21;;;;;;;8.15;4.47;;;20.30;90.70;;;;;;5041173;28;20108;-80
2023/10/03 05:43:50;;;;;;;9.32;4.55;;;20.30;90.80;;;;;;5041219;28;20061;-80
2023/10/03 05:46:16;;;;;;;12.23;4.70;;;20.10;90.80;;;;;;5057919;28;20025;-80
2023/10/03 05:48:43;;;;;;;9.85;4.63;;;20.00;91.00;;;;;;5040627;28;20045;-80
2023/10/03 05:51:09;;;;;;;10.80;4.93;;;20.00;91.10;;;;;;5040329;28;20029;-80
2023/10/03 05:53:35;;;;;;;10.55;4.55;;;19.90;91.20;;;;;;5039264;28;20088;-80
2023/10/03 05:56:04;;;;;;;8.82;4.43;;;19.90;91.30;;;;;;5055834;28;20023;-80
2023/10/03 05:58:30;;;;;;;7.65;4.40;;;19.90;91.20;;;;;;5039656;28;20037;-80
2023/10/03 06:00:56;;;;;;;9.15;4.57;;;19.80;91.20;;;;;;5056182;28;20112;-81
2023/10/03 06:03:21;;;;;;;8.25;4.40;;;19.90;91.30;;;;;;5038934;28;20621;-80
2023/10/03 06:05:50;;;;;;;9.50;4.95;;;19.90;91.20;;;;;;5039739;28;20036;-81
2023/10/03 06:08:17;;;;;;;10.45;5.07;;;19.90;91.20;;;;;;5023211;28;20024;-79
2023/10/03 06:10:42;;;;;;;10.00;5.03;;;19.90;91.20;;;;;;5073511;28;20410;-82
2023/10/03 06:13:11;;;;;;;12.10;5.18;;;19.90;91.30;;;;;;5041465;28;20032;-81
2023/10/03 06:15:46;;;;;;;9.65;5.28;;;19.90;91.30;;;;;;5041259;28;20032;-81
2023/10/03 06:18:12;;;;;;;9.43;4.97;;;19.90;91.30;;;;;;5057236;28;20478;-81
2023/10/03 06:20:38;;;;;;;13.05;4.97;;;19.90;91.40;;;;;;5039541;28;20082;-81
2023/10/03 06:23:04;;;;;;;13.18;4.90;;;19.90;91.30;;;;;;5022822;28;20121;-81
2023/10/03 06:25:31;;;;;;;9.27;4.30;;;19.90;91.40;;;;;;5022507;28;20355;-82
2023/10/03 06:27:59;;;;;;;9.07;4.72;;;19.90;91.50;;;;;;5056134;28;20029;-80
2023/10/03 06:30:25;;;;;;;8.95;4.93;;;19.90;91.60;;;;;;5041259;28;20032;-81
2023/10/03 06:32:51;;;;;;;10.80;5.40;;;19.80;91.70;;;;;;5073318;28;20032;-81
2023/10/03 06:35:18;;;;;;;12.13;4.97;;;19.80;91.70;;;;;;5022308;28;20442;-82
2023/10/03 06:37:44;;;;;;;9.10;4.47;;;19.80;91.80;;;;;;5055230;28;20493;-81
2023/10/03 06:40:13;;;;;;;11.73;4.45;;;19.80;91.70;;;;;;5038723;28;20029;-82
2023/10/03 06:42:40;;;;;;;9.90;5.32;;;19.80;91.80;;;;;;5023537;28;20033;-81
2023/10/03 06:45:11;;;;;;;8.52;4.68;;;19.80;91.90;;;;;;5038499;28;20029;-81
2023/10/03 06:47:38;;;;;;;8.43;4.63;;;19.80;91.90;;;;;;5054774;28;20616;-81
2023/10/03 06:50:05;;;;;;;10.25;4.47;;;19.80;92.00;;;;;;5038682;28;20116;-82
2023/10/03 06:52:32;;;;;;;11.00;5.03;;;19.80;92.10;;;;;;5022280;28;20538;-81
2023/10/03 06:54:58;;;;;;;8.50;4.40;;;19.80;92.00;;;;;;5072864;28;20020;-82
2023/10/03 06:57:25;;;;;;;10.48;5.20;;;19.80;92.10;;;;;;5038275;28;20090;-81
2023/10/03 06:59:52;;;;;;;8.48;4.40;;;19.80;92.00;;;;;;5038380;28;20036;-82
2023/10/03 07:02:18;;;;;;;10.80;5.03;;;19.80;92.00;;;;;;5055342;28;20522;-81
2023/10/03 07:04:44;;;;;;;8.50;4.55;;;19.80;92.30;;;;;;5021886;28;20124;-81
2023/10/03 07:07:10;;;;;;;12.15;4.75;;;19.80;92.20;;;;;;5054913;28;20074;-81
2023/10/03 07:09:38;;;;;;;9.15;4.28;;;19.70;92.30;;;;;;5021849;28;20024;-81
2023/10/03 07:12:07;;;;;;;10.00;4.13;;;19.70;92.40;;;;;;5022258;28;20024;-81
2023/10/03 07:14:35;;;;;;;11.75;4.32;;;19.60;92.40;;;;;;5022761;28;20017;-81
2023/10/03 07:17:02;;;;;;;8.82;3.80;;;19.60;92.40;;;;;;5038440;28;20021;-81
2023/10/03 07:19:30;;;;;;;8.35;4.13;;;19.60;92.60;;;;;;5038871;28;20032;-81
2023/10/03 07:21:56;;;;;;;8.63;4.00;;;19.50;92.80;;;;;;5038181;28;20039;-81
2023/10/03 07:24:24;;;;;;;9.85;4.40;;;19.50;92.90;;;;;;5054650;28;20029;-81
2023/10/03 07:26:50;;;;;;;10.18;5.03;;;19.50;93.30;;;;;;5022447;28;20025;-81
2023/10/03 07:29:17;;;;;;;9.73;5.30;;;19.40;93.60;;;;;;5032561;28;20504;-82
2023/10/03 07:31:43;;;;;;;12.98;5.25;;;19.30;94.30;;;;;;5064613;28;20024;-81
2023/10/03 07:34:09;;;;;;;10.23;5.40;;;19.30;94.60;;;;;;5052147;28;20017;-83
2023/10/03 07:36:36;;;;;;;10.80;5.47;;;19.10;94.90;;;;;;5037277;28;20384;-82
2023/10/03 07:39:03;;;;;;;9.32;5.47;;;19.20;95.10;;;;;;5021817;28;20120;-83
2023/10/03 07:41:29;;;;;;;11.82;6.32;;;19.10;95.40;;;;;;5022182;28;20051;-82
2023/10/03 07:43:54;;;;;;;12.57;6.20;;;19.20;95.30;;;;;;5038728;28;20487;-83
2023/10/03 07:46:21;;;;;;;15.93;6.30;;;19.10;95.30;;;;;;5038495;28;20072;-83
2023/10/03 07:48:48;;;;;;;11.43;6.13;;;19.20;95.40;;;;;;5034579;28;20045;-82
2023/10/03 07:51:17;;;;;;;10.18;5.53;;;19.20;95.40;;;;;;5036409;28;20033;-82
2023/10/03 07:53:43;;;;;;;13.63;6.50;;;19.20;95.40;;;;;;5018599;28;20387;-82
2023/10/03 07:56:29;;;;;;;12.68;6.22;;;19.20;95.30;;;;;;5052919;28;20027;-82
2023/10/03 07:58:56;;;;;;;14.65;6.70;;;19.30;95.10;;;;;;5041826;28;20061;-82
2023/10/03 08:01:27;;;;;;;9.68;5.88;;;19.30;95.20;;;;;;5034655;28;20035;-83
2023/10/03 08:03:57;;;;;;;16.25;6.97;;;19.40;95.10;;;;;;5034569;28;20391;-83
2023/10/03 08:06:24;;;;;;;12.30;6.63;;;19.40;95.10;;;;;;5035945;28;20464;-84
2023/10/03 08:08:55;;;;;;;12.85;6.57;;;19.40;95.10;;;;;;5034594;28;20026;-82
2023/10/03 08:11:28;;;;;;;9.93;6.53;;;19.30;95.10;;;;;;5034506;28;20025;-83
2023/10/03 08:14:13;;;;;;;12.85;7.13;;;19.30;95.00;;;;;;5034709;28;20391;-81
2023/10/03 08:16:42;;;;;;;11.55;6.47;;;19.30;95.00;;;;;;5035942;28;20416;-83
2023/10/03 08:19:08;;;;;;;12.13;6.90;;;19.40;95.00;;;;;;5018151;28;20026;-82
2023/10/03 08:21:35;;;;;;;11.68;6.82;;;19.30;95.10;;;;;;5034470;28;20041;-82
2023/10/03 08:24:09;;;;;;;11.70;6.85;;;19.30;95.10;;;;;;5017895;28;20029;-82
2023/10/03 08:26:46;;;;;;;12.55;6.53;;;19.30;95.30;;;;;;5018681;28;20368;-82
2023/10/03 08:29:21;;;;;;;13.38;6.90;;;19.30;95.20;;;;;;5035985;28;20479;-83
2023/10/03 08:31:49;;;;;;;12.93;6.47;;;19.30;95.20;;;;;;5034182;28;20013;-83
2023/10/03 08:34:16;;;;;;;15.18;6.80;;;19.30;95.20;;;;;;5034294;28;20029;-83
2023/10/03 08:36:42;;;;;;;12.13;6.00;;;19.30;95.20;;;;;;5018052;28;20032;-82
2023/10/03 08:39:14;;;;;;;12.13;6.43;;;19.40;95.20;;;;;;5017487;28;20033;-82
2023/10/03 08:42:12;;;;;;;10.20;6.30;;;19.40;95.00;;;;;;5018063;28;20030;-82
2023/10/03 08:44:56;;;;;;;9.25;5.38;;;19.40;94.60;;;;;;5035012;28;20046;-83
2023/10/03 08:47:31;;;;;;;8.30;4.28;;;19.40;94.20;;;;;;5017440;28;20049;-82
2023/10/03 08:50:29;;;;;;;9.50;3.53;;;19.50;93.70;;;;;;5041622;28;20032;-83
2023/10/03 08:52:56;;;;;;;7.25;3.50;;;19.50;93.30;;;;;;5059528;28;20119;-83
2023/10/03 08:55:26;;;;;;;4.75;2.83;;;19.60;93.30;;;;;;5056978;28;20048;-83
2023/10/03 08:57:52;;;;;;;5.78;2.65;;;19.60;92.90;;;;;;5057263;28;20032;-83
2023/10/03 09:00:25;;;;;;;4.68;2.78;;;19.70;92.90;;;;;;5068361;28;20026;-83
2023/10/03 09:03:09;;;;;;;3.53;2.38;;;19.80;92.80;;;;;;5048295;28;20029;-81
2023/10/03 09:05:39;;;;;;;6.55;2.10;;;19.90;92.10;;;;;;5044918;28;20489;-81
2023/10/03 09:08:17;;;;;;;4.03;1.80;;;19.90;92.20;;;;;;5055427;28;20436;-81
2023/10/03 09:10:52;;;;;;;4.82;1.80;;;19.90;92.10;;;;;;5045950;28;20018;-81
2023/10/03 09:13:23;;;;;;;5.10;1.70;;;19.90;92.20;;;;;;5023192;28;20056;-82
2023/10/03 09:16:00;;;;;;;5.00;1.50;;;19.80;91.60;;;;;;5038923;28;20025;-81
2023/10/03 09:18:31;;;;;;;3.17;0.85;;;19.80;91.80;;;;;;5034074;28;20111;-82
2023/10/03 09:20:59;;;;;;;1.63;0.80;;;19.60;91.50;;;;;;5016941;28;20033;-81
2023/10/03 09:23:38;;;;;;;1.40;0.57;;;19.40;92.00;;;;;;5043411;28;20098;-81
2023/10/03 09:26:06;;;;;;;3.05;0.50;;;19.30;92.50;;;;;;5073143;28;20055;-81
2023/10/03 09:28:35;;;;;;;2.13;0.80;;;19.20;92.80;;;;;;5072956;28;20513;-81
2023/10/03 09:31:08;;;;;;;4.22;0.90;;;19.20;93.10;;;;;;5026935;28;20473;-81
2023/10/03 09:33:38;;;;;;;0.70;0.52;;;19.20;93.20;;;;;;5036226;28;20025;-81
2023/10/03 09:36:05;;;;;;;2.38;0.88;;;19.20;93.30;;;;;;5052425;28;20017;-81
2023/10/03 09:38:42;;;;;;;2.95;0.73;;;19.20;93.50;;;;;;5070091;28;20028;-81
2023/10/03 09:41:16;;;;;;;3.35;0.60;;;19.20;93.50;;;;;;5047139;28;20517;-81
2023/10/03 09:43:46;;;;;;;2.33;0.77;;;19.20;93.80;;;;;;5028551;28;20036;-81
2023/10/03 09:46:23;;;;;;;3.72;0.77;;;19.30;93.40;;;;;;5034032;28;20029;-81
2023/10/03 09:48:54;;;;;;;4.05;0.93;;;19.30;93.40;;;;;;5056821;28;20494;-81
2023/10/03 09:51:46;;;;;;;5.18;0.90;;;19.30;93.30;;;;;;5046805;28;20032;-81
2023/10/03 09:54:15;;;;;;;2.33;1.00;;;19.30;93.00;;;;;;5031405;28;20060;-81
2023/10/03 09:56:44;;;;;;;3.17;1.10;;;19.20;92.90;;;;;;5056222;28;20031;-81
2023/10/03 09:59:17;;;;;;;5.47;1.20;;;19.30;93.00;;;;;;5062146;28;20020;-81
2023/10/03 10:01:45;;;;;;;2.65;0.60;;;19.30;92.90;;;;;;5048239;28;20036;-81
2023/10/03 10:04:13;;;;;;;3.20;0.80;;;19.30;93.20;;;;;;5054235;28;20032;-81
2023/10/03 10:06:51;;;;;;;1.58;0.77;;;19.40;92.80;;;;;;5054976;28;20035;-81
2023/10/03 10:09:28;;;;;;;1.58;0.77;;;19.40;92.70;;;;;;5063156;28;20466;-81
2023/10/03 10:12:21;;;;;;;2.88;0.90;;;19.40;92.40;;;;;;5047483;28;20037;-81
2023/10/03 10:15:02;;;;;;;4.45;1.10;;;19.40;92.30;;;;;;5072275;28;20092;-81
2023/10/03 10:17:52;;;;;;;2.97;0.70;;;19.40;92.40;;;;;;5055004;28;20106;-81
2023/10/03 10:20:38;;;;;;;1.60;0.50;;;19.50;92.50;;;;;;5055223;28;20033;-81
2023/10/03 10:25:42;;;;;;;1.77;0.25;;;19.40;92.40;;;;;;5073043;28;20064;-81
2023/10/03 10:28:11;;;;;;;1.85;0.30;;;19.40;92.30;;;;;;5039382;28;20032;-82
2023/10/03 10:30:39;;;;;;;1.17;0.30;;;19.30;92.10;;;;;;5038478;28;20462;-82
2023/10/03 10:33:20;;;;;;;0.52;0.30;;;19.10;91.80;;;;;;5046377;28;20009;-81
2023/10/03 10:35:54;;;;;;;2.00;0.50;;;19.10;91.90;;;;;;5034804;28;20383;-81
2023/10/03 10:38:40;;;;;;;1.00;0.20;;;19.10;92.00;;;;;;5033411;28;20067;-83
2023/10/03 10:41:18;;;;;;;1.27;0.20;;;19.10;92.00;;;;;;5023734;28;20559;-82
2023/10/03 10:44:06;;;;;;;0.70;0.40;;;19.00;91.90;;;;;;5033542;28;20025;-82
2023/10/03 10:46:38;;;;;;;0.88;0.40;;;19.00;91.70;;;;;;5034346;28;20025;-83
2023/10/03 10:49:24;;;;;;;1.30;0.40;;;19.00;91.90;;;;;;5051780;28;20048;-83
2023/10/03 10:52:01;;;;;;;3.22;0.80;;;19.10;91.60;;;;;;5020570;28;20509;-82
2023/10/03 10:54:27;;;;;;;4.28;0.93;;;19.10;91.60;;;;;;5018550;28;20033;-83
2023/10/03 10:57:01;;;;;;;2.30;1.05;;;19.10;91.60;;;;;;5002123;28;20021;-83
2023/10/03 10:59:27;;;;;;;3.35;0.70;;;19.10;91.30;;;;;;5018333;28;20041;-83
2023/10/03 11:01:53;;;;;;;4.60;0.70;;;19.10;91.40;;;;;;5034836;28;20019;-83
2023/10/03 11:04:27;;;;;;;1.85;0.50;;;19.10;91.20;;;;;;5036750;28;20033;-83
2023/10/03 11:06:53;;;;;;;3.72;0.57;;;19.10;91.20;;;;;;5038656;28;20025;-83
2023/10/03 11:09:20;;;;;;;1.92;0.50;;;19.10;91.30;;;;;;5038711;28;20111;-83
2023/10/03 11:11:47;;;;;;;4.32;0.60;;;19.00;91.20;;;;;;5022141;28;20028;-83
2023/10/03 11:14:23;;;;;;;1.50;0.50;;;19.00;91.30;;;;;;5038542;28;20057;-83
2023/10/03 11:16:49;;;;;;;0.90;0.40;;;19.00;91.50;;;;;;5023962;28;20071;-84
2023/10/03 11:19:15;;;;;;;4.32;0.70;;;18.90;91.80;;;;;;5038629;28;20029;-85
2023/10/03 11:21:41;;;;;;;0.45;0.35;;;18.90;92.00;;;;;;5006030;28;20040;-85
2023/10/03 11:24:18;;;;;;;2.30;0.50;;;18.80;92.10;;;;;;5005856;28;20025;-84
2023/10/03 11:26:49;;;;;;;2.47;0.50;;;18.80;92.30;;;;;;5023171;28;20036;-84
2023/10/03 11:29:45;;;;;;;1.35;0.47;;;18.70;92.50;;;;;;5038430;28;20414;-84
2023/10/03 11:32:25;;;;;;;1.55;0.43;;;18.70;92.70;;;;;;5056426;28;20367;-84
2023/10/03 11:34:52;;;;;;;4.25;0.45;;;18.80;93.20;;;;;;5038370;28;20032;-84
2023/10/03 11:37:44;;;;;;;3.22;0.43;;;18.70;93.10;;;;;;5038477;28;20501;-85
2023/10/03 11:40:16;;;;;;;2.15;0.40;;;18.70;92.90;;;;;;5038206;28;20501;-85
2023/10/03 11:43:02;;;;;;;1.30;0.30;;;18.50;92.90;;;;;;5038508;28;20032;-85
2023/10/03 11:45:33;;;;;;;1.77;0.40;;;18.40;93.10;;;;;;5038164;28;20033;-83
2023/10/03 11:48:10;;;;;;;2.50;0.35;;;18.30;93.30;;;;;;5022016;28;20498;-84
2023/10/03 11:50:37;;;;;;;4.57;0.90;;;18.20;93.50;;;;;;5021922;28;20025;-84
2023/10/03 11:53:08;;;;;;;2.40;0.40;;;18.20;93.50;;;;;;5038049;28;20053;-85
2023/10/03 11:55:36;;;;;;;3.30;0.68;;;18.10;93.80;;;;;;5022444;28;20017;-85
2023/10/03 11:58:05;;;;;;;0.90;0.70;;;18.10;94.00;;;;;;5037712;28;20036;-84
2023/10/03 12:00:31;;;;;;;1.25;0.70;;;18.20;93.90;;;;;;5005948;28;20033;-84
2023/10/03 12:02:57;;;;;;;1.20;0.65;;;18.10;94.10;;;;;;5021465;28;20044;-84
2023/10/03 12:05:23;;;;;;;1.77;0.80;;;18.20;93.90;;;;;;5021317;28;20036;-84
2023/10/03 12:07:50;;;;;;;1.95;0.70;;;18.10;93.80;;;;;;5037652;28;20048;-84
2023/10/03 12:10:18;;;;;;;0.68;0.45;;;18.20;93.90;;;;;;5055420;28;20024;-84
2023/10/03 12:12:45;;;;;;;0.80;0.45;;;18.20;93.90;;;;;;5037505;28;20028;-84
2023/10/03 12:15:14;;;;;;;2.55;0.80;;;18.20;93.80;;;;;;5020551;28;20025;-85
2023/10/03 12:17:42;;;;;;;1.75;0.63;;;18.10;93.80;;;;;;5021073;28;20037;-85
2023/10/03 12:20:12;;;;;;;2.83;0.80;;;17.90;93.70;;;;;;5037473;28;20032;-85
2023/10/03 12:22:41;;;;;;;1.90;0.73;;;17.90;93.70;;;;;;5021667;28;20033;-85
2023/10/03 12:25:09;;;;;;;2.95;0.70;;;17.90;93.70;;;;;;5048945;28;20024;-83
2023/10/03 12:27:36;;;;;;;2.55;0.70;;;17.90;93.80;;;;;;5057191;28;20037;-84
2023/10/03 12:30:04;;;;;;;2.85;0.80;;;17.90;93.70;;;;;;5040995;28;20115;-84
2023/10/03 12:32:34;;;;;;;2.85;0.80;;;17.90;93.80;;;;;;5037466;28;20092;-84
2023/10/03 12:35:01;;;;;;;1.58;0.65;;;17.90;93.90;;;;;;5038773;28;20027;-83
2023/10/03 12:37:28;;;;;;;1.98;0.73;;;17.90;94.00;;;;;;5036045;28;20029;-83
2023/10/03 12:40:01;;;;;;;1.73;0.82;;;17.90;94.00;;;;;;5030698;28;20033;-84
2023/10/03 12:42:29;;;;;;;4.10;0.93;;;17.90;94.00;;;;;;5047088;28;20444;-85
2023/10/03 12:45:00;;;;;;;2.03;0.80;;;18.00;94.00;;;;;;5017248;28;20052;-83
2023/10/03 12:47:27;;;;;;;1.70;0.80;;;17.90;93.40;;;;;;5046081;28;20033;-84
2023/10/03 12:49:53;;;;;;;2.20;0.70;;;17.80;93.50;;;;;;5030178;28;20037;-85
2023/10/03 12:52:19;;;;;;;1.90;0.82;;;17.80;93.60;;;;;;5017577;28;20505;-85
2023/10/03 12:54:48;;;;;;;2.28;0.90;;;17.80;93.70;;;;;;5033862;28;20431;-84
2023/10/03 12:57:14;;;;;;;2.10;0.70;;;17.70;93.60;;;;;;5018852;28;20154;-85
2023/10/03 12:59:45;;;;;;;2.42;0.75;;;17.70;93.70;;;;;;5037922;28;20036;-84
2023/10/03 13:02:14;;;;;;;2.08;0.73;;;17.70;93.50;;;;;;5028739;28;20596;-84